sensor_id;sensor_type;location;lat;lon;timestamp;temperature;humidity
18446;DHT22;9352;50.888;4.466;2024-02-04T00:01:04;10.80;99.90
18446;DHT22;9352;50.888;4.466;2024-02-04T00:03:31;10.80;99.90
18446;DHT22;9352;50.888;4.466;2024-02-04T00:05:57;10.70;99.90
18446;DHT22;9352;50.888;4.466;2024-02-04T00:08:24;10.70;99.90
18446;DHT22;9352;50.888;4.466;2024-02-04T00:10:51;10.70;99.90
18446;DHT22;9352;50.888;4.466;2024-02-04T00:13:18;10.70;99.90
18446;DHT22;9352;50.888;4.466;2024-02-04T00:15:45;10.70;99.90
18446;DHT22;9352;50.888;4.466;2024-02-04T00:18:13;10.80;99.90
18446;DHT22;9352;50.888;4.466;2024-02-04T00:20:40;10.70;99.90
18446;DHT22;9352;50.888;4.466;2024-02-04T00:23:07;10.80;99.90
18446;DHT22;9352;50.888;4.466;2024-02-04T00:25:34;10.70;99.90
18446;DHT22;9352;50.888;4.466;2024-02-04T00:28:01;10.70;99.90
18446;DHT22;9352;50.888;4.466;2024-02-04T00:30:28;10.80;99.90
18446;DHT22;9352;50.888;4.466;2024-02-04T00:32:55;10.70;99.90
18446;DHT22;9352;50.888;4.466;2024-02-04T00:35:29;10.80;99.90
18446;DHT22;9352;50.888;4.466;2024-02-04T00:37:57;10.70;99.90
18446;DHT22;9352;50.888;4.466;2024-02-04T00:40:24;10.80;99.90
18446;DHT22;9352;50.888;4.466;2024-02-04T00:42:52;10.80;99.90
18446;DHT22;9352;50.888;4.466;2024-02-04T00:45:19;10.80;99.90
18446;DHT22;9352;50.888;4.466;2024-02-04T00:47:45;10.80;99.90
18446;DHT22;9352;50.888;4.466;2024-02-04T00:50:12;10.70;99.90
18446;DHT22;9352;50.888;4.466;2024-02-04T00:52:41;10.80;99.90
18446;DHT22;9352;50.888;4.466;2024-02-04T00:55:08;10.80;99.90
18446;DHT22;9352;50.888;4.466;2024-02-04T00:57:35;10.80;99.90
18446;DHT22;9352;50.888;4.466;2024-02-04T01:00:02;10.80;99.90
18446;DHT22;9352;50.888;4.466;2024-02-04T01:02:30;10.80;99.90
18446;DHT22;9352;50.888;4.466;2024-02-04T01:04:56;10.80;99.90
18446;DHT22;9352;50.888;4.466;2024-02-04T01:07:23;10.80;99.90
18446;DHT22;9352;50.888;4.466;2024-02-04T01:09:51;10.80;99.90
18446;DHT22;9352;50.888;4.466;2024-02-04T01:12:18;10.80;99.90
18446;DHT22;9352;50.888;4.466;2024-02-04T01:14:45;10.80;99.90
18446;DHT22;9352;50.888;4.466;2024-02-04T01:17:12;10.80;99.90
18446;DHT22;9352;50.888;4.466;2024-02-04T01:19:39;10.90;99.90
18446;DHT22;9352;50.888;4.466;2024-02-04T01:22:06;10.90;99.90
18446;DHT22;9352;50.888;4.466;2024-02-04T01:24:33;10.80;99.90
18446;DHT22;9352;50.888;4.466;2024-02-04T01:27:01;10.90;99.90
18446;DHT22;9352;50.888;4.466;2024-02-04T01:29:28;10.90;99.90
18446;DHT22;9352;50.888;4.466;2024-02-04T01:31:55;10.80;99.90
18446;DHT22;9352;50.888;4.466;2024-02-04T01:34:21;10.80;99.90
18446;DHT22;9352;50.888;4.466;2024-02-04T01:36:48;10.90;99.90
18446;DHT22;9352;50.888;4.466;2024-02-04T01:39:15;10.80;99.90
18446;DHT22;9352;50.888;4.466;2024-02-04T01:41:42;10.90;99.90
18446;DHT22;9352;50.888;4.466;2024-02-04T01:44:12;10.90;99.90
18446;DHT22;9352;50.888;4.466;2024-02-04T01:46:39;10.90;99.90
18446;DHT22;9352;50.888;4.466;2024-02-04T01:49:06;10.90;99.90
18446;DHT22;9352;50.888;4.466;2024-02-04T01:51:33;10.90;99.90
18446;DHT22;9352;50.888;4.466;2024-02-04T01:54:01;10.90;99.90
18446;DHT22;9352;50.888;4.466;2024-02-04T01:56:28;10.90;99.90
18446;DHT22;9352;50.888;4.466;2024-02-04T01:58:56;10.90;99.90
18446;DHT22;9352;50.888;4.466;2024-02-04T02:01:26;10.90;99.90
18446;DHT22;9352;50.888;4.466;2024-02-04T02:03:54;10.90;99.90
18446;DHT22;9352;50.888;4.466;2024-02-04T02:06:21;10.90;99.90
18446;DHT22;9352;50.888;4.466;2024-02-04T02:08:48;10.90;99.90
18446;DHT22;9352;50.888;4.466;2024-02-04T02:11:20;10.90;99.90
18446;DHT22;9352;50.888;4.466;2024-02-04T02:13:50;11.00;99.90
18446;DHT22;9352;50.888;4.466;2024-02-04T02:16:21;10.90;99.90
18446;DHT22;9352;50.888;4.466;2024-02-04T02:18:54;11.00;99.90
18446;DHT22;9352;50.888;4.466;2024-02-04T02:21:47;11.00;99.90
18446;DHT22;9352;50.888;4.466;2024-02-04T02:24:30;11.00;99.90
18446;DHT22;9352;50.888;4.466;2024-02-04T02:26:58;11.00;99.90
18446;DHT22;9352;50.888;4.466;2024-02-04T02:29:25;11.00;99.90
18446;DHT22;9352;50.888;4.466;2024-02-04T02:31:51;11.00;99.90
18446;DHT22;9352;50.888;4.466;2024-02-04T02:34:18;11.00;99.90
18446;DHT22;9352;50.888;4.466;2024-02-04T02:36:50;11.00;99.90
18446;DHT22;9352;50.888;4.466;2024-02-04T02:39:23;11.00;99.90
18446;DHT22;9352;50.888;4.466;2024-02-04T02:41:55;11.10;99.90
18446;DHT22;9352;50.888;4.466;2024-02-04T02:44:23;11.10;99.90
18446;DHT22;9352;50.888;4.466;2024-02-04T02:46:52;11.10;99.90
18446;DHT22;9352;50.888;4.466;2024-02-04T02:49:20;11.10;99.90
18446;DHT22;9352;50.888;4.466;2024-02-04T02:51:47;11.10;99.90
18446;DHT22;9352;50.888;4.466;2024-02-04T02:54:14;11.10;99.90
18446;DHT22;9352;50.888;4.466;2024-02-04T02:56:41;11.20;99.90
18446;DHT22;9352;50.888;4.466;2024-02-04T02:59:09;11.10;99.90
18446;DHT22;9352;50.888;4.466;2024-02-04T03:01:39;11.20;99.90
18446;DHT22;9352;50.888;4.466;2024-02-04T03:04:06;11.10;99.90
18446;DHT22;9352;50.888;4.466;2024-02-04T03:06:33;11.10;99.90
18446;DHT22;9352;50.888;4.466;2024-02-04T03:09:00;11.20;99.90
18446;DHT22;9352;50.888;4.466;2024-02-04T03:11:26;11.10;99.90
18446;DHT22;9352;50.888;4.466;2024-02-04T03:13:53;11.20;99.90
18446;DHT22;9352;50.888;4.466;2024-02-04T03:16:22;11.10;99.90
18446;DHT22;9352;50.888;4.466;2024-02-04T03:18:48;11.10;99.90
18446;DHT22;9352;50.888;4.466;2024-02-04T03:21:16;11.20;99.90
18446;DHT22;9352;50.888;4.466;2024-02-04T03:23:43;11.20;99.90
18446;DHT22;9352;50.888;4.466;2024-02-04T03:26:11;11.10;99.90
18446;DHT22;9352;50.888;4.466;2024-02-04T03:28:38;11.10;99.90
18446;DHT22;9352;50.888;4.466;2024-02-04T03:31:04;11.10;99.90
18446;DHT22;9352;50.888;4.466;2024-02-04T03:33:33;11.10;99.90
18446;DHT22;9352;50.888;4.466;2024-02-04T03:35:59;11.10;99.90
18446;DHT22;9352;50.888;4.466;2024-02-04T03:38:26;11.10;99.90
18446;DHT22;9352;50.888;4.466;2024-02-04T03:40:54;11.10;99.90
18446;DHT22;9352;50.888;4.466;2024-02-04T03:43:21;11.10;99.90
18446;DHT22;9352;50.888;4.466;2024-02-04T03:45:48;11.00;99.90
18446;DHT22;9352;50.888;4.466;2024-02-04T03:48:14;11.10;99.90
18446;DHT22;9352;50.888;4.466;2024-02-04T03:50:43;11.10;99.90
18446;DHT22;9352;50.888;4.466;2024-02-04T03:53:10;11.10;99.90
18446;DHT22;9352;50.888;4.466;2024-02-04T03:55:37;11.10;99.90
18446;DHT22;9352;50.888;4.466;2024-02-04T03:58:04;11.10;99.90
18446;DHT22;9352;50.888;4.466;2024-02-04T04:00:30;11.10;99.90
18446;DHT22;9352;50.888;4.466;2024-02-04T04:02:57;11.00;99.90
18446;DHT22;9352;50.888;4.466;2024-02-04T04:05:24;11.10;99.90
18446;DHT22;9352;50.888;4.466;2024-02-04T04:07:53;11.10;99.90
18446;DHT22;9352;50.888;4.466;2024-02-04T04:10:20;11.10;99.90
18446;DHT22;9352;50.888;4.466;2024-02-04T04:12:46;11.10;99.90
18446;DHT22;9352;50.888;4.466;2024-02-04T04:15:14;11.10;99.90
18446;DHT22;9352;50.888;4.466;2024-02-04T04:17:40;11.10;99.90
18446;DHT22;9352;50.888;4.466;2024-02-04T04:20:08;11.00;99.90
18446;DHT22;9352;50.888;4.466;2024-02-04T04:22:35;11.10;99.90
18446;DHT22;9352;50.888;4.466;2024-02-04T04:25:04;11.10;99.90
18446;DHT22;9352;50.888;4.466;2024-02-04T04:27:30;11.10;99.90
18446;DHT22;9352;50.888;4.466;2024-02-04T04:29:57;11.10;99.90
18446;DHT22;9352;50.888;4.466;2024-02-04T04:32:24;11.10;99.90
18446;DHT22;9352;50.888;4.466;2024-02-04T04:34:51;11.10;99.90
18446;DHT22;9352;50.888;4.466;2024-02-04T04:37:20;11.10;99.90
18446;DHT22;9352;50.888;4.466;2024-02-04T04:39:47;11.10;99.90
18446;DHT22;9352;50.888;4.466;2024-02-04T04:42:16;11.10;99.90
18446;DHT22;9352;50.888;4.466;2024-02-04T04:44:42;11.10;99.90
18446;DHT22;9352;50.888;4.466;2024-02-04T04:47:09;11.10;99.90
18446;DHT22;9352;50.888;4.466;2024-02-04T04:49:36;11.10;99.90
18446;DHT22;9352;50.888;4.466;2024-02-04T04:52:04;11.10;99.90
18446;DHT22;9352;50.888;4.466;2024-02-04T04:54:31;11.10;99.90
18446;DHT22;9352;50.888;4.466;2024-02-04T04:56:57;11.00;99.90
18446;DHT22;9352;50.888;4.466;2024-02-04T04:59:26;11.00;99.90
18446;DHT22;9352;50.888;4.466;2024-02-04T05:01:52;11.00;99.90
18446;DHT22;9352;50.888;4.466;2024-02-04T05:04:19;11.00;99.90
18446;DHT22;9352;50.888;4.466;2024-02-04T05:06:49;11.00;99.90
18446;DHT22;9352;50.888;4.466;2024-02-04T05:09:16;11.00;99.90
18446;DHT22;9352;50.888;4.466;2024-02-04T05:11:42;11.00;99.90
18446;DHT22;9352;50.888;4.466;2024-02-04T05:14:09;11.00;99.90
18446;DHT22;9352;50.888;4.466;2024-02-04T05:16:38;11.00;99.90
18446;DHT22;9352;50.888;4.466;2024-02-04T05:19:04;11.00;99.90
18446;DHT22;9352;50.888;4.466;2024-02-04T05:21:31;11.00;99.90
18446;DHT22;9352;50.888;4.466;2024-02-04T05:23:58;11.00;99.90
18446;DHT22;9352;50.888;4.466;2024-02-04T05:26:25;10.90;99.90
18446;DHT22;9352;50.888;4.466;2024-02-04T05:28:52;11.00;99.90
18446;DHT22;9352;50.888;4.466;2024-02-04T05:31:19;10.90;99.90
18446;DHT22;9352;50.888;4.466;2024-02-04T05:33:47;10.90;99.90
18446;DHT22;9352;50.888;4.466;2024-02-04T05:36:14;11.00;99.90
18446;DHT22;9352;50.888;4.466;2024-02-04T05:38:44;11.00;99.90
18446;DHT22;9352;50.888;4.466;2024-02-04T05:41:11;11.00;99.90
18446;DHT22;9352;50.888;4.466;2024-02-04T05:43:38;11.00;99.90
18446;DHT22;9352;50.888;4.466;2024-02-04T05:46:05;11.00;99.90
18446;DHT22;9352;50.888;4.466;2024-02-04T05:48:32;11.00;99.90
18446;DHT22;9352;50.888;4.466;2024-02-04T05:51:01;11.00;99.90
18446;DHT22;9352;50.888;4.466;2024-02-04T05:53:27;11.10;99.90
18446;DHT22;9352;50.888;4.466;2024-02-04T05:55:54;11.10;99.90
18446;DHT22;9352;50.888;4.466;2024-02-04T05:58:21;11.10;99.90
18446;DHT22;9352;50.888;4.466;2024-02-04T06:00:48;11.10;99.90
18446;DHT22;9352;50.888;4.466;2024-02-04T06:03:15;11.10;99.90
18446;DHT22;9352;50.888;4.466;2024-02-04T06:05:42;11.10;99.90
18446;DHT22;9352;50.888;4.466;2024-02-04T06:08:10;11.10;99.90
18446;DHT22;9352;50.888;4.466;2024-02-04T06:10:37;11.10;99.90
18446;DHT22;9352;50.888;4.466;2024-02-04T06:13:04;11.10;99.90
18446;DHT22;9352;50.888;4.466;2024-02-04T06:15:30;11.20;99.90
18446;DHT22;9352;50.888;4.466;2024-02-04T06:17:57;11.10;99.90
18446;DHT22;9352;50.888;4.466;2024-02-04T06:20:24;11.10;99.90
18446;DHT22;9352;50.888;4.466;2024-02-04T06:22:51;11.20;99.90
18446;DHT22;9352;50.888;4.466;2024-02-04T06:25:19;11.20;99.90
18446;DHT22;9352;50.888;4.466;2024-02-04T06:27:46;11.20;99.90
18446;DHT22;9352;50.888;4.466;2024-02-04T06:30:13;11.10;99.90
18446;DHT22;9352;50.888;4.466;2024-02-04T06:32:41;11.10;99.90
18446;DHT22;9352;50.888;4.466;2024-02-04T06:35:08;11.10;99.90
18446;DHT22;9352;50.888;4.466;2024-02-04T06:37:35;11.10;99.90
18446;DHT22;9352;50.888;4.466;2024-02-04T06:40:02;11.10;99.90
18446;DHT22;9352;50.888;4.466;2024-02-04T06:42:31;11.10;99.90
18446;DHT22;9352;50.888;4.466;2024-02-04T06:44:58;11.10;99.90
18446;DHT22;9352;50.888;4.466;2024-02-04T06:47:24;11.20;99.90
18446;DHT22;9352;50.888;4.466;2024-02-04T06:49:51;11.20;99.90
18446;DHT22;9352;50.888;4.466;2024-02-04T06:52:18;11.20;99.90
18446;DHT22;9352;50.888;4.466;2024-02-04T06:54:45;11.20;99.90
18446;DHT22;9352;50.888;4.466;2024-02-04T06:57:12;11.20;99.90
18446;DHT22;9352;50.888;4.466;2024-02-04T06:59:40;11.20;99.90
18446;DHT22;9352;50.888;4.466;2024-02-04T07:02:07;11.20;99.90
18446;DHT22;9352;50.888;4.466;2024-02-04T07:04:34;11.10;99.90
18446;DHT22;9352;50.888;4.466;2024-02-04T07:07:01;11.20;99.90
18446;DHT22;9352;50.888;4.466;2024-02-04T07:09:28;11.10;99.90
18446;DHT22;9352;50.888;4.466;2024-02-04T07:11:54;11.20;99.90
18446;DHT22;9352;50.888;4.466;2024-02-04T07:14:21;11.20;99.90
18446;DHT22;9352;50.888;4.466;2024-02-04T07:16:49;11.20;99.90
18446;DHT22;9352;50.888;4.466;2024-02-04T07:19:16;11.20;99.90
18446;DHT22;9352;50.888;4.466;2024-02-04T07:21:43;11.20;99.90
18446;DHT22;9352;50.888;4.466;2024-02-04T07:24:10;11.20;99.90
18446;DHT22;9352;50.888;4.466;2024-02-04T07:26:37;11.20;99.90
18446;DHT22;9352;50.888;4.466;2024-02-04T07:29:04;11.20;99.90
18446;DHT22;9352;50.888;4.466;2024-02-04T07:31:31;11.20;99.90
18446;DHT22;9352;50.888;4.466;2024-02-04T07:33:59;11.20;99.90
18446;DHT22;9352;50.888;4.466;2024-02-04T07:36:26;11.20;99.90
18446;DHT22;9352;50.888;4.466;2024-02-04T07:38:53;11.20;99.90
18446;DHT22;9352;50.888;4.466;2024-02-04T07:41:20;11.20;99.90
18446;DHT22;9352;50.888;4.466;2024-02-04T07:43:47;11.20;99.90
18446;DHT22;9352;50.888;4.466;2024-02-04T07:46:14;11.20;99.90
18446;DHT22;9352;50.888;4.466;2024-02-04T07:48:41;11.30;99.90
18446;DHT22;9352;50.888;4.466;2024-02-04T07:51:09;11.30;99.90
18446;DHT22;9352;50.888;4.466;2024-02-04T07:53:36;11.30;99.90
18446;DHT22;9352;50.888;4.466;2024-02-04T07:56:03;11.30;99.90
18446;DHT22;9352;50.888;4.466;2024-02-04T07:58:32;11.30;99.90
18446;DHT22;9352;50.888;4.466;2024-02-04T08:00:59;11.30;99.90
18446;DHT22;9352;50.888;4.466;2024-02-04T08:03:26;11.40;99.90
18446;DHT22;9352;50.888;4.466;2024-02-04T08:05:52;11.40;99.90
18446;DHT22;9352;50.888;4.466;2024-02-04T08:08:21;11.40;99.90
18446;DHT22;9352;50.888;4.466;2024-02-04T08:10:47;11.40;99.90
18446;DHT22;9352;50.888;4.466;2024-02-04T08:13:14;11.50;99.90
18446;DHT22;9352;50.888;4.466;2024-02-04T08:15:41;11.40;99.90
18446;DHT22;9352;50.888;4.466;2024-02-04T08:18:08;11.40;99.90
18446;DHT22;9352;50.888;4.466;2024-02-04T08:20:35;11.40;99.90
18446;DHT22;9352;50.888;4.466;2024-02-04T08:23:02;11.50;99.90
18446;DHT22;9352;50.888;4.466;2024-02-04T08:25:30;11.50;99.90
18446;DHT22;9352;50.888;4.466;2024-02-04T08:27:58;11.50;99.90
18446;DHT22;9352;50.888;4.466;2024-02-04T08:30:25;11.50;99.90
18446;DHT22;9352;50.888;4.466;2024-02-04T08:32:52;11.50;99.90
18446;DHT22;9352;50.888;4.466;2024-02-04T08:35:19;11.50;99.90
18446;DHT22;9352;50.888;4.466;2024-02-04T08:37:45;11.60;99.90
18446;DHT22;9352;50.888;4.466;2024-02-04T08:40:13;11.50;99.90
18446;DHT22;9352;50.888;4.466;2024-02-04T08:42:41;11.60;99.90
18446;DHT22;9352;50.888;4.466;2024-02-04T08:45:09;11.60;99.90
18446;DHT22;9352;50.888;4.466;2024-02-04T08:47:37;11.60;99.90
18446;DHT22;9352;50.888;4.466;2024-02-04T08:50:05;11.50;99.90
18446;DHT22;9352;50.888;4.466;2024-02-04T08:52:32;11.60;99.90
18446;DHT22;9352;50.888;4.466;2024-02-04T08:54:58;11.60;99.90
18446;DHT22;9352;50.888;4.466;2024-02-04T08:57:25;11.70;99.90
18446;DHT22;9352;50.888;4.466;2024-02-04T08:59:54;11.70;99.90
18446;DHT22;9352;50.888;4.466;2024-02-04T09:02:21;11.70;99.90
18446;DHT22;9352;50.888;4.466;2024-02-04T09:04:47;11.80;99.90
18446;DHT22;9352;50.888;4.466;2024-02-04T09:07:14;11.80;99.90
18446;DHT22;9352;50.888;4.466;2024-02-04T09:09:40;11.80;99.90
18446;DHT22;9352;50.888;4.466;2024-02-04T09:12:09;11.90;99.90
18446;DHT22;9352;50.888;4.466;2024-02-04T09:14:36;12.00;99.90
18446;DHT22;9352;50.888;4.466;2024-02-04T09:17:04;12.00;99.90
18446;DHT22;9352;50.888;4.466;2024-02-04T09:19:31;11.90;99.90
18446;DHT22;9352;50.888;4.466;2024-02-04T09:21:58;11.90;99.90
18446;DHT22;9352;50.888;4.466;2024-02-04T09:24:26;11.90;99.90
18446;DHT22;9352;50.888;4.466;2024-02-04T09:26:53;11.90;99.90
18446;DHT22;9352;50.888;4.466;2024-02-04T09:29:20;11.90;99.90
18446;DHT22;9352;50.888;4.466;2024-02-04T09:31:47;11.90;99.90
18446;DHT22;9352;50.888;4.466;2024-02-04T09:34:16;11.90;99.90
18446;DHT22;9352;50.888;4.466;2024-02-04T09:36:44;11.90;99.90
18446;DHT22;9352;50.888;4.466;2024-02-04T09:39:11;11.90;99.90
18446;DHT22;9352;50.888;4.466;2024-02-04T09:41:38;11.90;99.90
18446;DHT22;9352;50.888;4.466;2024-02-04T09:44:05;11.80;99.90
18446;DHT22;9352;50.888;4.466;2024-02-04T09:46:33;11.90;99.90
18446;DHT22;9352;50.888;4.466;2024-02-04T09:49:00;11.80;99.90
18446;DHT22;9352;50.888;4.466;2024-02-04T09:51:29;11.80;99.90
18446;DHT22;9352;50.888;4.466;2024-02-04T09:53:59;11.80;99.90
18446;DHT22;9352;50.888;4.466;2024-02-04T09:56:30;11.80;99.90
18446;DHT22;9352;50.888;4.466;2024-02-04T09:58:58;11.80;99.90
18446;DHT22;9352;50.888;4.466;2024-02-04T10:01:26;11.70;99.90
18446;DHT22;9352;50.888;4.466;2024-02-04T10:03:53;11.80;99.90
18446;DHT22;9352;50.888;4.466;2024-02-04T10:06:19;11.80;99.90
18446;DHT22;9352;50.888;4.466;2024-02-04T10:08:48;11.80;99.90
18446;DHT22;9352;50.888;4.466;2024-02-04T10:11:15;11.80;99.90
18446;DHT22;9352;50.888;4.466;2024-02-04T10:13:45;11.80;99.90
18446;DHT22;9352;50.888;4.466;2024-02-04T10:16:12;11.80;99.90
18446;DHT22;9352;50.888;4.466;2024-02-04T10:18:41;11.90;99.90
18446;DHT22;9352;50.888;4.466;2024-02-04T10:21:15;12.00;99.90
18446;DHT22;9352;50.888;4.466;2024-02-04T10:23:43;12.10;99.90
18446;DHT22;9352;50.888;4.466;2024-02-04T10:26:11;12.10;99.90
18446;DHT22;9352;50.888;4.466;2024-02-04T10:28:38;12.10;99.90
18446;DHT22;9352;50.888;4.466;2024-02-04T10:31:08;12.20;99.90
18446;DHT22;9352;50.888;4.466;2024-02-04T10:33:35;12.20;99.90
18446;DHT22;9352;50.888;4.466;2024-02-04T10:36:02;12.20;99.90
18446;DHT22;9352;50.888;4.466;2024-02-04T10:38:29;12.20;99.90
18446;DHT22;9352;50.888;4.466;2024-02-04T10:40:59;12.20;99.90
18446;DHT22;9352;50.888;4.466;2024-02-04T10:43:31;12.20;99.90
18446;DHT22;9352;50.888;4.466;2024-02-04T10:46:01;12.30;99.90
18446;DHT22;9352;50.888;4.466;2024-02-04T10:48:36;12.30;99.90
18446;DHT22;9352;50.888;4.466;2024-02-04T10:51:12;12.30;99.90
18446;DHT22;9352;50.888;4.466;2024-02-04T10:53:41;12.30;99.90
18446;DHT22;9352;50.888;4.466;2024-02-04T10:56:13;12.30;99.90
18446;DHT22;9352;50.888;4.466;2024-02-04T10:58:41;12.30;99.90
18446;DHT22;9352;50.888;4.466;2024-02-04T11:01:10;12.30;99.90
18446;DHT22;9352;50.888;4.466;2024-02-04T11:03:39;12.40;99.90
18446;DHT22;9352;50.888;4.466;2024-02-04T11:06:07;12.30;99.90
18446;DHT22;9352;50.888;4.466;2024-02-04T11:08:35;12.30;99.90
18446;DHT22;9352;50.888;4.466;2024-02-04T11:11:02;12.30;99.90
18446;DHT22;9352;50.888;4.466;2024-02-04T11:13:29;12.40;99.90
18446;DHT22;9352;50.888;4.466;2024-02-04T11:15:59;12.30;99.90
18446;DHT22;9352;50.888;4.466;2024-02-04T11:22:05;12.30;99.90
18446;DHT22;9352;50.888;4.466;2024-02-04T11:24:53;12.40;99.90
18446;DHT22;9352;50.888;4.466;2024-02-04T11:27:22;12.40;99.90
18446;DHT22;9352;50.888;4.466;2024-02-04T11:29:51;12.30;99.90
18446;DHT22;9352;50.888;4.466;2024-02-04T11:32:19;12.30;99.90
18446;DHT22;9352;50.888;4.466;2024-02-04T11:34:46;12.40;99.90
18446;DHT22;9352;50.888;4.466;2024-02-04T11:37:16;12.40;99.90
18446;DHT22;9352;50.888;4.466;2024-02-04T11:39:51;12.30;99.90
18446;DHT22;9352;50.888;4.466;2024-02-04T11:42:18;12.30;99.90
18446;DHT22;9352;50.888;4.466;2024-02-04T11:44:46;12.30;99.90
18446;DHT22;9352;50.888;4.466;2024-02-04T11:47:24;12.30;99.90
18446;DHT22;9352;50.888;4.466;2024-02-04T11:49:55;12.30;99.90
18446;DHT22;9352;50.888;4.466;2024-02-04T11:52:22;12.30;99.90
18446;DHT22;9352;50.888;4.466;2024-02-04T11:54:49;12.40;99.90
18446;DHT22;9352;50.888;4.466;2024-02-04T11:57:16;12.30;99.90
18446;DHT22;9352;50.888;4.466;2024-02-04T11:59:44;12.40;99.90
18446;DHT22;9352;50.888;4.466;2024-02-04T12:02:11;12.40;99.90
18446;DHT22;9352;50.888;4.466;2024-02-04T12:04:40;12.50;99.90
18446;DHT22;9352;50.888;4.466;2024-02-04T12:07:09;12.50;99.90
18446;DHT22;9352;50.888;4.466;2024-02-04T12:09:36;12.50;99.90
18446;DHT22;9352;50.888;4.466;2024-02-04T12:12:04;12.50;99.90
18446;DHT22;9352;50.888;4.466;2024-02-04T12:14:31;12.50;99.90
18446;DHT22;9352;50.888;4.466;2024-02-04T12:16:58;12.60;99.90
18446;DHT22;9352;50.888;4.466;2024-02-04T12:19:25;12.60;99.90
18446;DHT22;9352;50.888;4.466;2024-02-04T12:21:54;12.50;99.90
18446;DHT22;9352;50.888;4.466;2024-02-04T12:24:21;12.60;99.90
18446;DHT22;9352;50.888;4.466;2024-02-04T12:26:48;12.50;99.90
18446;DHT22;9352;50.888;4.466;2024-02-04T12:29:15;12.50;99.90
18446;DHT22;9352;50.888;4.466;2024-02-04T12:31:42;12.40;99.90
18446;DHT22;9352;50.888;4.466;2024-02-04T12:34:12;12.40;99.90
18446;DHT22;9352;50.888;4.466;2024-02-04T12:36:39;12.40;99.90
18446;DHT22;9352;50.888;4.466;2024-02-04T12:39:10;12.40;99.90
18446;DHT22;9352;50.888;4.466;2024-02-04T12:41:37;12.50;99.90
18446;DHT22;9352;50.888;4.466;2024-02-04T12:44:04;12.50;99.90
18446;DHT22;9352;50.888;4.466;2024-02-04T12:46:31;12.50;99.90
18446;DHT22;9352;50.888;4.466;2024-02-04T12:48:58;12.50;99.90
18446;DHT22;9352;50.888;4.466;2024-02-04T12:51:26;12.50;99.90
18446;DHT22;9352;50.888;4.466;2024-02-04T12:54:06;12.60;99.90
18446;DHT22;9352;50.888;4.466;2024-02-04T12:56:45;12.60;99.90
18446;DHT22;9352;50.888;4.466;2024-02-04T12:59:23;12.60;99.90
18446;DHT22;9352;50.888;4.466;2024-02-04T13:01:55;12.60;99.90
18446;DHT22;9352;50.888;4.466;2024-02-04T13:04:22;12.70;99.90
18446;DHT22;9352;50.888;4.466;2024-02-04T13:06:50;12.70;99.90
18446;DHT22;9352;50.888;4.466;2024-02-04T13:09:17;12.80;99.90
18446;DHT22;9352;50.888;4.466;2024-02-04T13:11:45;12.80;99.90
18446;DHT22;9352;50.888;4.466;2024-02-04T13:14:12;12.90;99.90
18446;DHT22;9352;50.888;4.466;2024-02-04T13:16:39;13.00;99.90
18446;DHT22;9352;50.888;4.466;2024-02-04T13:19:06;13.00;99.90
18446;DHT22;9352;50.888;4.466;2024-02-04T13:21:33;13.00;99.90
18446;DHT22;9352;50.888;4.466;2024-02-04T13:24:00;13.00;99.90
18446;DHT22;9352;50.888;4.466;2024-02-04T13:26:27;13.00;99.90
18446;DHT22;9352;50.888;4.466;2024-02-04T13:28:56;12.90;99.90
18446;DHT22;9352;50.888;4.466;2024-02-04T13:31:23;12.80;99.90
18446;DHT22;9352;50.888;4.466;2024-02-04T13:33:50;12.80;99.90
18446;DHT22;9352;50.888;4.466;2024-02-04T13:36:16;12.80;99.90
18446;DHT22;9352;50.888;4.466;2024-02-04T13:38:43;12.80;99.90
18446;DHT22;9352;50.888;4.466;2024-02-04T13:41:10;12.80;99.90
18446;DHT22;9352;50.888;4.466;2024-02-04T13:43:37;12.80;99.90
18446;DHT22;9352;50.888;4.466;2024-02-04T13:46:05;12.70;99.90
18446;DHT22;9352;50.888;4.466;2024-02-04T13:48:32;12.70;99.90
18446;DHT22;9352;50.888;4.466;2024-02-04T13:50:59;12.60;99.90
18446;DHT22;9352;50.888;4.466;2024-02-04T13:53:26;12.50;99.90
18446;DHT22;9352;50.888;4.466;2024-02-04T13:55:53;12.40;99.90
18446;DHT22;9352;50.888;4.466;2024-02-04T13:58:20;12.40;99.90
18446;DHT22;9352;50.888;4.466;2024-02-04T14:00:48;12.30;99.90
18446;DHT22;9352;50.888;4.466;2024-02-04T14:03:17;12.30;99.90
18446;DHT22;9352;50.888;4.466;2024-02-04T14:05:44;12.30;99.90
18446;DHT22;9352;50.888;4.466;2024-02-04T14:08:11;12.10;99.90
18446;DHT22;9352;50.888;4.466;2024-02-04T14:10:37;12.10;99.90
18446;DHT22;9352;50.888;4.466;2024-02-04T14:13:05;12.10;99.90
18446;DHT22;9352;50.888;4.466;2024-02-04T14:15:32;12.10;99.90
18446;DHT22;9352;50.888;4.466;2024-02-04T14:17:59;12.10;99.90
18446;DHT22;9352;50.888;4.466;2024-02-04T14:20:29;12.10;99.90
18446;DHT22;9352;50.888;4.466;2024-02-04T14:22:56;12.10;99.90
18446;DHT22;9352;50.888;4.466;2024-02-04T14:25:23;12.10;99.90
18446;DHT22;9352;50.888;4.466;2024-02-04T14:27:50;12.10;99.90
18446;DHT22;9352;50.888;4.466;2024-02-04T14:30:17;12.00;99.90
18446;DHT22;9352;50.888;4.466;2024-02-04T14:32:44;12.00;99.90
18446;DHT22;9352;50.888;4.466;2024-02-04T14:35:11;11.90;99.90
18446;DHT22;9352;50.888;4.466;2024-02-04T14:37:40;12.00;99.90
18446;DHT22;9352;50.888;4.466;2024-02-04T14:40:09;11.90;99.90
18446;DHT22;9352;50.888;4.466;2024-02-04T14:42:37;11.90;99.90
18446;DHT22;9352;50.888;4.466;2024-02-04T14:45:04;11.90;99.90
18446;DHT22;9352;50.888;4.466;2024-02-04T14:47:31;11.90;99.90
18446;DHT22;9352;50.888;4.466;2024-02-04T14:49:58;11.90;99.90
18446;DHT22;9352;50.888;4.466;2024-02-04T14:52:25;11.90;99.90
18446;DHT22;9352;50.888;4.466;2024-02-04T14:54:53;11.90;99.90
18446;DHT22;9352;50.888;4.466;2024-02-04T14:57:20;11.90;99.90
18446;DHT22;9352;50.888;4.466;2024-02-04T14:59:47;11.90;99.90
18446;DHT22;9352;50.888;4.466;2024-02-04T15:02:14;11.90;99.90
18446;DHT22;9352;50.888;4.466;2024-02-04T15:04:41;12.00;99.90
18446;DHT22;9352;50.888;4.466;2024-02-04T15:07:08;12.00;99.90
18446;DHT22;9352;50.888;4.466;2024-02-04T15:09:35;12.00;99.90
18446;DHT22;9352;50.888;4.466;2024-02-04T15:12:04;12.00;99.90
18446;DHT22;9352;50.888;4.466;2024-02-04T15:14:32;12.00;99.90
18446;DHT22;9352;50.888;4.466;2024-02-04T15:16:59;11.90;99.90
18446;DHT22;9352;50.888;4.466;2024-02-04T15:19:27;11.90;99.90
18446;DHT22;9352;50.888;4.466;2024-02-04T15:21:54;12.00;99.90
18446;DHT22;9352;50.888;4.466;2024-02-04T15:24:22;11.90;99.90
18446;DHT22;9352;50.888;4.466;2024-02-04T15:26:49;12.00;99.90
18446;DHT22;9352;50.888;4.466;2024-02-04T15:29:20;11.90;99.90
18446;DHT22;9352;50.888;4.466;2024-02-04T15:31:47;11.90;99.90
18446;DHT22;9352;50.888;4.466;2024-02-04T15:34:16;12.00;99.90
18446;DHT22;9352;50.888;4.466;2024-02-04T15:36:43;11.90;99.90
18446;DHT22;9352;50.888;4.466;2024-02-04T15:39:10;11.90;99.90
18446;DHT22;9352;50.888;4.466;2024-02-04T15:41:37;11.90;99.90
18446;DHT22;9352;50.888;4.466;2024-02-04T15:44:05;12.00;99.90
18446;DHT22;9352;50.888;4.466;2024-02-04T15:46:35;12.00;99.90
18446;DHT22;9352;50.888;4.466;2024-02-04T15:49:03;12.00;99.90
18446;DHT22;9352;50.888;4.466;2024-02-04T15:51:36;12.00;99.90